Time;durP1;ratioP1;P1;durP2;ratioP2;P2;SDS_P1;SDS_P2;PMS_P1;PMS_P2;Temp;Humidity;BMP_temperature;BMP_pressure;BME280_temperature;BME280_humidity;BME280_pressure;Samples;Min_cycle;Max_cycle;Signal;HPM_P1;HPM_P2
2022/03/09 00:00:00;;;;;;;;;;;;;;;2.22;87.90;102081.72;5270220;28;20441;-82
2022/03/09 00:02:31;;;;;;;;;;;;;;;2.24;87.25;102085.88;5270701;28;19927;-82
2022/03/09 00:05:01;;;;;;;;;;;;;;;2.17;87.06;102084.06;5252143;28;19928;-82
2022/03/09 00:07:31;;;;;;;;;;;;;;;2.13;86.67;102072.06;5270464;28;19912;-82
2022/03/09 00:10:03;;;;;;;;;;;;;;;2.10;87.18;102075.06;5270806;28;19912;-83
2022/03/09 00:12:33;;;;;;;;;;;;;;;2.07;86.79;102078.91;5279844;28;20381;-82
2022/03/09 00:15:04;;;;;;;;;;;;;;;1.95;87.34;102080.28;5274748;28;20015;-82
2022/03/09 00:17:34;;;;;;;;;;;;;;;1.88;88.43;102080.13;5270076;28;19955;-83
2022/03/09 00:20:06;;;;;;;;;;;;;;;1.78;88.60;102079.47;5251550;28;19916;-82
2022/03/09 00:22:36;;;;;;;;;;;;;;;1.67;89.40;102087.81;5270409;28;20417;-82
2022/03/09 00:25:07;;;;;;;;;;;;;;;1.62;89.92;102090.16;5270297;28;20034;-82
2022/03/09 00:27:37;;;;;;;;;;;;;;;1.53;90.74;102083.16;5252405;28;19918;-82
2022/03/09 00:30:07;;;;;;;;;;;;;;;1.45;91.61;102075.97;5270451;28;19951;-82
2022/03/09 00:32:38;;;;;;;;;;;;;;;1.55;91.83;102076.66;5270475;28;19912;-83
2022/03/09 00:35:09;;;;;;;;;;;;;;;1.59;91.72;102079.81;5270357;28;19916;-82
2022/03/09 00:37:39;;;;;;;;;;;;;;;1.52;91.53;102082.31;5252450;28;19912;-81
2022/03/09 00:40:09;;;;;;;;;;;;;;;1.33;91.98;102091.47;5272648;28;20394;-81
2022/03/09 00:42:40;;;;;;;;;;;;;;;1.27;93.31;102086.81;5272257;28;19912;-81
2022/03/09 00:45:10;;;;;;;;;;;;;;;1.35;94.08;102097.47;5270986;28;19939;-82
2022/03/09 00:47:41;;;;;;;;;;;;;;;1.44;93.69;102102.81;5254355;28;19916;-82
2022/03/09 00:50:11;;;;;;;;;;;;;;;1.47;93.23;102091.78;5271977;28;19919;-82
2022/03/09 00:52:41;;;;;;;;;;;;;;;1.46;93.38;102101.59;5271996;28;19912;-83
2022/03/09 00:55:11;;;;;;;;;;;;;;;1.49;93.65;102100.44;5253121;28;19912;-82
2022/03/09 00:57:42;;;;;;;;;;;;;;;1.49;92.96;102095.94;5252305;28;20251;-82
2022/03/09 01:00:12;;;;;;;;;;;;;;;1.48;92.87;102093.47;5269951;28;19912;-82
2022/03/09 01:02:43;;;;;;;;;;;;;;;1.46;92.97;102090.13;5270239;28;19919;-82
2022/03/09 01:05:14;;;;;;;;;;;;;;;1.38;92.92;102100.78;5269562;28;19963;-83
2022/03/09 01:07:44;;;;;;;;;;;;;;;1.28;93.70;102098.28;5270238;28;20038;-82
2022/03/09 01:10:14;;;;;;;;;;;;;;;1.26;94.57;102095.78;5252257;28;19916;-82
2022/03/09 01:12:48;;;;;;;;;;;;;;;1.37;93.94;102104.44;5270334;28;19916;-82
2022/03/09 01:15:18;;;;;;;;;;;;;;;1.24;93.72;102096.94;5272083;28;19912;-82
2022/03/09 01:17:48;;;;;;;;;;;;;;;1.11;94.69;102097.44;5274072;28;20295;-82
2022/03/09 01:20:18;;;;;;;;;;;;;;;1.07;95.71;102090.78;5273486;28;19918;-82
2022/03/09 01:22:49;;;;;;;;;;;;;;;1.03;95.65;102092.09;5274203;28;19950;-82
2022/03/09 01:25:19;;;;;;;;;;;;;;;1.03;96.03;102094.75;5273303;28;20362;-80
2022/03/09 01:27:49;;;;;;;;;;;;;;;1.00;96.14;102100.41;5273803;28;19912;-83
2022/03/09 01:30:19;;;;;;;;;;;;;;;1.09;96.26;102098.59;5273470;28;19981;-82
2022/03/09 01:32:51;;;;;;;;;;;;;;;1.15;95.82;102093.44;5255336;28;19933;-82
2022/03/09 01:35:21;;;;;;;;;;;;;;;1.14;95.99;102102.44;5255252;28;20382;-83
2022/03/09 01:37:51;;;;;;;;;;;;;;;1.19;95.80;102093.94;5274059;28;19943;-83
2022/03/09 01:40:22;;;;;;;;;;;;;;;1.18;96.12;102098.41;5279125;28;19912;-82
2022/03/09 01:42:52;;;;;;;;;;;;;;;1.12;96.02;102093.78;5274140;28;19947;-83
2022/03/09 01:45:23;;;;;;;;;;;;;;;0.96;96.14;102089.25;5272932;28;20382;-82
2022/03/09 01:47:54;;;;;;;;;;;;;;;0.92;97.12;102101.19;5273807;28;19987;-82
2022/03/09 01:50:24;;;;;;;;;;;;;;;0.86;98.93;102093.91;5273184;28;19966;-83
2022/03/09 01:52:54;;;;;;;;;;;;;;;0.79;98.43;102095.53;5272445;28;20381;-80
2022/03/09 01:55:25;;;;;;;;;;;;;;;0.76;99.86;102101.16;5271900;28;19923;-80
2022/03/09 01:57:55;;;;;;;;;;;;;;;0.87;99.96;102094.69;5273335;28;19923;-82
2022/03/09 02:00:26;;;;;;;;;;;;;;;0.87;99.51;102097.34;5273618;28;20215;-80
2022/03/09 02:02:56;;;;;;;;;;;;;;;0.86;99.66;102093.06;5271831;28;19943;-80
2022/03/09 02:05:26;;;;;;;;;;;;;;;0.84;99.84;102089.72;5270961;28;19949;-80
2022/03/09 02:10:46;;;;;;;;;;;;;;;0.72;100.00;102083.88;5272368;28;19962;-80
2022/03/09 02:13:16;;;;;;;;;;;;;;;0.71;100.00;102082.19;5271871;28;19912;-82
2022/03/09 02:15:46;;;;;;;;;;;;;;;0.88;100.00;102085.72;5272291;28;19912;-81
2022/03/09 02:18:17;;;;;;;;;;;;;;;1.00;100.00;102084.44;5273521;28;19923;-81
2022/03/09 02:20:49;;;;;;;;;;;;;;;1.04;99.01;102075.13;5271870;28;19935;-82
2022/03/09 02:23:19;;;;;;;;;;;;;;;0.94;99.54;102075.28;5254578;28;19916;-81
2022/03/09 02:25:50;;;;;;;;;;;;;;;0.94;99.60;102074.44;5270511;28;19965;-81
2022/03/09 02:28:20;;;;;;;;;;;;;;;0.96;100.00;102077.78;5271821;28;19919;-82
2022/03/09 02:30:54;;;;;;;;;;;;;;;0.91;99.44;102077.44;5253970;28;19934;-83
2022/03/09 02:33:24;;;;;;;;;;;;;;;0.83;100.00;102074.78;5253831;28;20329;-81
2022/03/09 02:35:54;;;;;;;;;;;;;;;0.85;100.00;102080.75;5254039;28;19923;-82
2022/03/09 02:38:25;;;;;;;;;;;;;;;0.92;100.00;102079.09;5272189;28;19916;-82
2022/03/09 02:40:55;;;;;;;;;;;;;;;0.86;100.00;102064.63;5254436;28;20014;-82
2022/03/09 02:43:27;;;;;;;;;;;;;;;0.79;100.00;102071.59;5271366;28;19967;-82
2022/03/09 02:45:57;;;;;;;;;;;;;;;0.84;100.00;102079.94;5253788;28;20374;-83
2022/03/09 02:48:27;;;;;;;;;;;;;;;0.89;100.00;102071.44;5272004;28;19920;-82
2022/03/09 02:50:57;;;;;;;;;;;;;;;0.92;100.00;102076.44;5271596;28;19912;-82
2022/03/09 02:53:28;;;;;;;;;;;;;;;0.92;100.00;102077.25;5271240;28;19918;-82
2022/03/09 02:55:58;;;;;;;;;;;;;;;0.93;99.77;102078.94;5272732;28;20282;-82
2022/03/09 02:58:28;;;;;;;;;;;;;;;0.90;100.00;102075.75;5273474;28;20484;-82
2022/03/09 03:00:58;;;;;;;;;;;;;;;0.86;100.00;102069.13;5255957;28;19934;-82
2022/03/09 03:03:29;;;;;;;;;;;;;;;0.80;100.00;102078.59;5278296;28;19974;-82
2022/03/09 03:05:59;;;;;;;;;;;;;;;0.74;100.00;102073.91;5272439;28;19912;-81
2022/03/09 03:08:30;;;;;;;;;;;;;;;0.73;100.00;102076.72;5271840;28;19919;-82
2022/03/09 03:11:01;;;;;;;;;;;;;;;0.66;100.00;102081.84;5271642;28;19916;-81
2022/03/09 03:13:31;;;;;;;;;;;;;;;0.68;100.00;102072.72;5271300;28;20378;-82
2022/03/09 03:16:01;;;;;;;;;;;;;;;0.75;100.00;102075.56;5271569;28;19916;-82
2022/03/09 03:18:32;;;;;;;;;;;;;;;0.90;100.00;102073.09;5271521;28;19991;-82
2022/03/09 03:21:02;;;;;;;;;;;;;;;0.92;100.00;102066.63;5253739;28;19912;-82
2022/03/09 03:23:33;;;;;;;;;;;;;;;0.89;100.00;102068.78;5270727;28;19927;-82
2022/03/09 03:26:04;;;;;;;;;;;;;;;0.75;100.00;102069.41;5253203;28;19912;-82
2022/03/09 03:28:35;;;;;;;;;;;;;;;0.73;100.00;102064.25;5271278;28;19923;-82
2022/03/09 03:31:06;;;;;;;;;;;;;;;0.57;100.00;102065.06;5252872;28;20299;-82
2022/03/09 03:33:36;;;;;;;;;;;;;;;0.43;100.00;102076.28;5271533;22;19951;-58
2022/03/09 03:36:06;;;;;;;;;;;;;;;0.31;100.00;102072.22;5250348;28;19975;-57
2022/03/09 03:38:37;;;;;;;;;;;;;;;0.21;100.00;102079.50;5250015;28;19916;-58
2022/03/09 03:41:07;;;;;;;;;;;;;;;0.14;100.00;102075.81;5250532;28;19916;-56
2022/03/09 03:43:37;;;;;;;;;;;;;;;0.02;100.00;102072.56;5233770;28;20007;-57
2022/03/09 03:46:08;;;;;;;;;;;;;;;-0.02;100.00;102071.25;5229553;28;20042;-56
2022/03/09 03:48:38;;;;;;;;;;;;;;;-0.10;100.00;102063.22;5229310;28;19912;-56
2022/03/09 03:51:08;;;;;;;;;;;;;;;-0.15;100.00;102068.16;5230248;28;19935;-56
2022/03/09 03:53:39;;;;;;;;;;;;;;;-0.17;100.00;102073.63;5229148;28;19913;-61
2022/03/09 03:56:09;;;;;;;;;;;;;;;-0.14;100.00;102073.31;5229354;28;19919;-58
2022/03/09 03:58:39;;;;;;;;;;;;;;;-0.20;100.00;102073.94;5228917;28;19912;-58
2022/03/09 04:01:10;;;;;;;;;;;;;;;-0.24;100.00;102074.41;5229144;28;20287;-56
2022/03/09 04:03:40;;;;;;;;;;;;;;;-0.30;100.00;102067.09;5228714;28;20267;-56
2022/03/09 04:06:13;;;;;;;;;;;;;;;-0.36;100.00;102058.75;5228972;28;19920;-57
2022/03/09 04:08:43;;;;;;;;;;;;;;;-0.36;100.00;102058.75;5229166;28;19916;-57
2022/03/09 04:11:14;;;;;;;;;;;;;;;-0.34;100.00;102061.25;5228448;28;19966;-57
2022/03/09 04:13:44;;;;;;;;;;;;;;;-0.34;100.00;102063.91;5228867;28;19923;-58
2022/03/09 04:16:15;;;;;;;;;;;;;;;-0.32;100.00;102058.44;5229230;28;19916;-58
2022/03/09 04:18:45;;;;;;;;;;;;;;;-0.41;100.00;102069.00;5228907;28;20463;-58
2022/03/09 04:21:15;;;;;;;;;;;;;;;-0.47;100.00;102066.13;5229140;28;20003;-58
2022/03/09 04:23:45;;;;;;;;;;;;;;;-0.45;100.00;102062.31;5228552;28;19999;-58
2022/03/09 04:26:16;;;;;;;;;;;;;;;-0.44;100.00;102056.03;5247260;28;19916;-57
2022/03/09 04:28:46;;;;;;;;;;;;;;;-0.49;100.00;102058.31;5229053;28;19912;-57
2022/03/09 04:31:17;;;;;;;;;;;;;;;-0.46;100.00;102065.13;5246789;28;19955;-58
2022/03/09 04:33:47;;;;;;;;;;;;;;;-0.45;100.00;102057.03;5228453;28;19923;-58
2022/03/09 04:36:18;;;;;;;;;;;;;;;-0.52;100.00;102053.31;5228670;28;19913;-56
2022/03/09 04:38:48;;;;;;;;;;;;;;;-0.61;100.00;102056.06;5246859;28;20279;-57
2022/03/09 04:41:18;;;;;;;;;;;;;;;-0.71;100.00;102061.44;5228755;28;19920;-57
2022/03/09 04:43:49;;;;;;;;;;;;;;;-0.74;100.00;102069.72;5228306;28;19919;-57
2022/03/09 04:46:19;;;;;;;;;;;;;;;-0.74;100.00;102070.53;5228656;28;20077;-58
2022/03/09 04:48:49;;;;;;;;;;;;;;;-0.67;100.00;102070.78;5228496;28;19919;-57
2022/03/09 04:51:20;;;;;;;;;;;;;;;-0.72;100.00;102068.56;5232453;28;19912;-58
2022/03/09 04:53:50;;;;;;;;;;;;;;;-0.79;100.00;102066.69;5231831;28;20390;-58
2022/03/09 04:56:21;;;;;;;;;;;;;;;-0.83;100.00;102067.97;5232371;28;19912;-57
2022/03/09 04:58:51;;;;;;;;;;;;;;;-0.89;100.00;102061.47;5250693;28;19912;-58
2022/03/09 05:01:21;;;;;;;;;;;;;;;-0.95;100.00;102062.06;5248956;28;19912;-58
2022/03/09 05:03:52;;;;;;;;;;;;;;;-0.95;100.00;102072.69;5248888;28;19919;-58
2022/03/09 05:06:22;;;;;;;;;;;;;;;-0.90;100.00;102072.22;5232373;28;19960;-58
2022/03/09 05:08:52;;;;;;;;;;;;;;;-0.90;100.00;102078.38;5231970;28;19930;-57
2022/03/09 05:11:23;;;;;;;;;;;;;;;-0.97;100.00;102072.00;5248561;28;19920;-58
2022/03/09 05:13:53;;;;;;;;;;;;;;;-0.98;100.00;102072.97;5248394;28;20344;-57
2022/03/09 05:16:23;;;;;;;;;;;;;;;-0.98;100.00;102078.28;5248866;28;20030;-57
2022/03/09 05:18:54;;;;;;;;;;;;;;;-1.00;100.00;102074.09;5250075;28;20395;-57
2022/03/09 05:21:24;;;;;;;;;;;;;;;-1.00;100.00;102074.09;5249138;28;19952;-58
2022/03/09 05:23:54;;;;;;;;;;;;;;;-1.01;100.00;102083.88;5248145;28;20292;-58
2022/03/09 05:26:25;;;;;;;;;;;;;;;-0.96;100.00;102075.47;5248594;28;19916;-57
2022/03/09 05:28:57;;;;;;;;;;;;;;;-0.97;100.00;102076.47;5231774;28;19912;-56
2022/03/09 05:31:27;;;;;;;;;;;;;;;-0.87;100.00;102079.88;5248986;28;19955;-56
2022/03/09 05:33:57;;;;;;;;;;;;;;;-0.95;100.00;102080.63;5248907;28;20344;-58
2022/03/09 05:36:28;;;;;;;;;;;;;;;-1.06;100.00;102081.69;5249387;28;20007;-58
2022/03/09 05:38:58;;;;;;;;;;;;;;;-1.08;100.00;102082.81;5249248;28;19995;-58
2022/03/09 05:41:28;;;;;;;;;;;;;;;-1.15;100.00;102090.50;5248662;28;20010;-57
2022/03/09 05:43:59;;;;;;;;;;;;;;;-1.21;100.00;102085.84;5248054;28;19916;-58
2022/03/09 05:46:30;;;;;;;;;;;;;;;-1.30;100.00;102093.81;5242974;28;20356;-58
2022/03/09 05:49:01;;;;;;;;;;;;;;;-1.34;100.00;102093.28;5250832;28;19918;-57
2022/03/09 05:51:32;;;;;;;;;;;;;;;-1.34;100.00;102097.75;5251562;28;19919;-58
2022/03/09 05:54:03;;;;;;;;;;;;;;;-1.32;100.00;102101.09;5251523;28;19912;-56
2022/03/09 05:56:33;;;;;;;;;;;;;;;-1.32;100.00;102095.78;5251796;28;19912;-56
2022/03/09 05:59:03;;;;;;;;;;;;;;;-1.33;100.00;102094.97;5251491;28;20398;-55
2022/03/09 06:01:33;;;;;;;;;;;;;;;-1.40;100.00;102100.00;5251396;28;19919;-57
2022/03/09 06:04:04;;;;;;;;;;;;;;;-1.44;100.00;102105.75;5251003;28;19912;-57
2022/03/09 06:06:35;;;;;;;;;;;;;;;-1.51;100.00;102108.16;5251712;28;19923;-57
2022/03/09 06:09:05;;;;;;;;;;;;;;;-1.60;100.00;102113.50;5251178;28;19912;-57
2022/03/09 06:11:35;;;;;;;;;;;;;;;-1.66;100.00;102114.91;5251512;28;19912;-57
2022/03/09 06:14:06;;;;;;;;;;;;;;;-1.69;100.00;102117.84;5250899;28;19919;-57
2022/03/09 06:16:36;;;;;;;;;;;;;;;-1.75;100.00;102116.63;5250691;28;19916;-56
2022/03/09 06:19:06;;;;;;;;;;;;;;;-1.76;100.00;102109.66;5231875;28;20418;-57
2022/03/09 06:21:37;;;;;;;;;;;;;;;-1.77;100.00;102115.94;5230256;28;19922;-57
2022/03/09 06:24:07;;;;;;;;;;;;;;;-1.77;100.00;102110.66;5229268;28;20003;-57
2022/03/09 06:26:40;;;;;;;;;;;;;;;-1.76;100.00;102114.13;5229632;28;19956;-57
2022/03/09 06:29:11;;;;;;;;;;;;;;;-1.77;100.00;102117.75;5229585;28;19921;-57
2022/03/09 06:31:45;;;;;;;;;;;;;;;-1.75;100.00;102121.09;5230087;28;19919;-57
2022/03/09 06:34:15;;;;;;;;;;;;;;;-1.72;100.00;102126.06;5247852;28;19985;-58
2022/03/09 06:36:46;;;;;;;;;;;;;;;-1.68;100.00;102127.47;5228999;28;20392;-57
2022/03/09 06:39:16;;;;;;;;;;;;;;;-1.59;100.00;102131.06;5228840;28;19962;-56
2022/03/09 06:41:46;;;;;;;;;;;;;;;-1.46;100.00;102129.75;5229941;28;19918;-56
2022/03/09 06:44:17;;;;;;;;;;;;;;;-1.34;100.00;102122.44;5229748;28;20003;-57
2022/03/09 06:46:47;;;;;;;;;;;;;;;-1.17;100.00;102131.44;5230087;28;19920;-56
2022/03/09 06:49:17;;;;;;;;;;;;;;;-0.98;100.00;102133.13;5229936;28;19933;-57
2022/03/09 06:51:48;;;;;;;;;;;;;;;-0.80;100.00;102139.28;5229738;28;19913;-57
2022/03/09 06:54:18;;;;;;;;;;;;;;;-0.65;100.00;102144.91;5247390;28;19999;-56
2022/03/09 06:56:51;;;;;;;;;;;;;;;-0.56;100.00;102141.31;5229637;28;19991;-56
2022/03/09 07:02:38;;;;;;;;;;;;;;;-0.32;100.00;102143.38;5247512;28;19924;-56
2022/03/09 07:05:09;;;;;;;;;;;;;;;-0.23;100.00;102143.28;5229117;28;20363;-56
2022/03/09 07:07:39;;;;;;;;;;;;;;;-0.06;100.00;102145.06;5229689;28;19923;-58
2022/03/09 07:10:12;;;;;;;;;;;;;;;0.08;100.00;102140.19;5229401;28;19916;-58
2022/03/09 07:12:44;;;;;;;;;;;;;;;0.19;100.00;102139.94;5228767;28;19913;-57
2022/03/09 07:15:15;;;;;;;;;;;;;;;0.28;100.00;102139.81;5228869;28;20395;-58
2022/03/09 07:17:46;;;;;;;;;;;;;;;0.38;100.00;102147.66;5230105;28;20352;-58
2022/03/09 07:20:18;;;;;;;;;;;;;;;0.40;100.00;102153.66;5229594;28;19959;-58
2022/03/09 07:22:48;;;;;;;;;;;;;;;0.49;100.00;102157.19;5229449;28;19956;-58
2022/03/09 07:25:19;;;;;;;;;;;;;;;0.60;100.00;102156.91;5229419;28;19955;-58
2022/03/09 07:27:49;;;;;;;;;;;;;;;0.72;100.00;102155.66;5229343;28;20007;-58
2022/03/09 07:30:19;;;;;;;;;;;;;;;0.92;100.00;102156.22;5229376;28;20011;-57
2022/03/09 07:32:50;;;;;;;;;;;;;;;1.01;100.00;102153.44;5229385;28;20306;-58
2022/03/09 07:35:21;;;;;;;;;;;;;;;1.12;100.00;102162.94;5228975;28;19920;-57
2022/03/09 07:37:51;;;;;;;;;;;;;;;1.18;100.00;102161.44;5229190;28;19912;-58
2022/03/09 07:40:21;;;;;;;;;;;;;;;1.31;100.00;102159.16;5229232;28;19923;-58
2022/03/09 07:42:52;;;;;;;;;;;;;;;1.48;100.00;102152.00;5228945;28;19912;-57
2022/03/09 07:45:22;;;;;;;;;;;;;;;1.58;100.00;102153.53;5228945;28;19913;-58
2022/03/09 07:47:52;;;;;;;;;;;;;;;1.67;100.00;102157.03;5246757;28;19961;-59
2022/03/09 07:50:23;;;;;;;;;;;;;;;1.69;100.00;102160.38;5229042;28;19919;-59
2022/03/09 07:52:53;;;;;;;;;;;;;;;1.75;100.00;102170.34;5229286;28;19912;-58
2022/03/09 07:55:23;;;;;;;;;;;;;;;1.83;100.00;102162.34;5228674;28;19957;-57
2022/03/09 07:57:54;;;;;;;;;;;;;;;1.85;100.00;102171.00;5228927;28;19962;-57
2022/03/09 08:00:24;;;;;;;;;;;;;;;1.88;100.00;102170.69;5228853;28;19919;-58
2022/03/09 08:02:54;;;;;;;;;;;;;;;1.99;100.00;102175.69;5228788;28;19920;-56
2022/03/09 08:05:25;;;;;;;;;;;;;;;2.13;100.00;102181.31;5228244;28;19961;-61
2022/03/09 08:07:55;;;;;;;;;;;;;;;2.24;100.00;102184.50;5228683;28;19916;-57
2022/03/09 08:10:26;;;;;;;;;;;;;;;2.36;100.00;102185.78;5229223;28;20033;-57
2022/03/09 08:12:56;;;;;;;;;;;;;;;2.42;100.00;102178.94;5229095;28;19912;-58
2022/03/09 08:15:26;;;;;;;;;;;;;;;2.54;100.00;102177.59;5229359;28;19913;-57
2022/03/09 08:17:57;;;;;;;;;;;;;;;2.62;100.00;102185.56;5229035;28;20277;-57
2022/03/09 08:20:27;;;;;;;;;;;;;;;2.77;100.00;102182.19;5229273;28;19924;-56
2022/03/09 08:22:57;;;;;;;;;;;;;;;2.83;100.00;102181.50;5229563;28;20453;-56
2022/03/09 08:25:27;;;;;;;;;;;;;;;2.85;100.00;102185.66;5251542;28;19916;-62
2022/03/09 08:28:00;;;;;;;;;;;;;;;2.91;100.00;102190.28;5254771;28;19923;-59
2022/03/09 08:30:31;;;;;;;;;;;;;;;3.01;100.00;102195.41;5253506;28;19915;-59
2022/03/09 08:33:01;;;;;;;;;;;;;;;3.09;100.00;102194.56;5253853;28;20419;-58
2022/03/09 08:35:32;;;;;;;;;;;;;;;3.15;100.00;102186.69;5253741;28;19916;-59
2022/03/09 08:38:03;;;;;;;;;;;;;;;3.21;100.00;102185.97;5253866;28;20403;-59
2022/03/09 08:40:34;;;;;;;;;;;;;;;3.30;100.00;102187.59;5253721;28;19945;-59
2022/03/09 08:43:04;;;;;;;;;;;;;;;3.40;100.00;102195.41;5253478;28;19916;-58
2022/03/09 08:45:35;;;;;;;;;;;;;;;3.56;100.00;102197.94;5253574;28;19912;-58
2022/03/09 08:48:05;;;;;;;;;;;;;;;3.71;100.00;102187.34;5253646;28;19973;-59
2022/03/09 08:50:35;;;;;;;;;;;;;;;3.83;100.00;102193.91;5253378;28;19983;-58
2022/03/09 08:53:06;;;;;;;;;;;;;;;3.89;100.00;102187.03;5271460;28;19911;-59
2022/03/09 08:55:36;;;;;;;;;;;;;;;3.93;100.00;102191.00;5253113;28;19916;-59
2022/03/09 08:58:07;;;;;;;;;;;;;;;3.99;100.00;102191.13;5271596;28;20104;-57
2022/03/09 09:00:37;;;;;;;;;;;;;;;4.12;99.96;102195.84;5253206;28;19916;-59
2022/03/09 09:03:09;;;;;;;;;;;;;;;4.23;100.00;102191.91;5253194;28;19962;-57
2022/03/09 09:05:39;;;;;;;;;;;;;;;4.40;99.92;102188.88;5252904;28;20007;-57
2022/03/09 09:08:09;;;;;;;;;;;;;;;4.58;98.88;102188.56;5253347;28;20015;-57
2022/03/09 09:10:40;;;;;;;;;;;;;;;4.79;99.32;102181.63;5253254;28;19919;-58
2022/03/09 09:13:11;;;;;;;;;;;;;;;4.99;98.32;102183.53;5271583;28;20387;-60
2022/03/09 09:15:41;;;;;;;;;;;;;;;5.15;97.68;102165.59;5252891;28;20382;-58
2022/03/09 09:18:12;;;;;;;;;;;;;;;5.33;96.21;102169.50;5253037;28;19924;-58
2022/03/09 09:20:42;;;;;;;;;;;;;;;5.57;95.86;102170.16;5252789;28;20013;-60
2022/03/09 09:23:12;;;;;;;;;;;;;;;5.73;95.97;102177.97;5253373;28;20053;-58
2022/03/09 09:25:43;;;;;;;;;;;;;;;5.92;94.35;102179.19;5252660;28;19916;-58
2022/03/09 09:28:14;;;;;;;;;;;;;;;6.13;94.07;102172.97;5252740;28;20401;-59
2022/03/09 09:30:44;;;;;;;;;;;;;;;6.42;93.66;102178.97;5253042;28;19912;-59
2022/03/09 09:33:14;;;;;;;;;;;;;;;6.64;92.43;102166.28;5252873;28;19967;-58
2022/03/09 09:35:44;;;;;;;;;;;;;;;6.82;91.92;102167.63;5283266;22;20022;-65
2022/03/09 09:38:15;;;;;;;;;;;;;;;7.07;89.55;102168.78;5270692;28;19999;-65
2022/03/09 09:40:46;;;;;;;;;;;;;;;7.32;89.71;102161.84;5252357;28;20291;-65
2022/03/09 09:43:16;;;;;;;;;;;;;;;7.47;89.19;102167.06;5252011;28;19912;-65
2022/03/09 09:45:47;;;;;;;;;;;;;;;7.64;88.32;102170.19;5252122;28;19912;-65
2022/03/09 09:48:19;;;;;;;;;;;;;;;7.75;85.10;102158.81;5252191;28;19919;-65
2022/03/09 09:50:51;;;;;;;;;;;;;;;7.91;85.71;102155.72;5252069;28;19951;-65
2022/03/09 09:53:22;;;;;;;;;;;;;;;8.06;85.95;102155.53;5270338;28;19912;-65
2022/03/09 09:55:52;;;;;;;;;;;;;;;8.22;86.17;102157.78;5252227;28;20007;-66
2022/03/09 09:58:23;;;;;;;;;;;;;;;8.33;83.85;102159.06;5270611;28;20003;-65
2022/03/09 10:00:54;;;;;;;;;;;;;;;8.41;83.52;102156.13;5251898;28;19912;-65
2022/03/09 10:03:24;;;;;;;;;;;;;;;8.56;83.93;102153.19;5251682;28;19912;-67
2022/03/09 10:05:55;;;;;;;;;;;;;;;8.71;82.62;102149.22;5252479;28;20363;-66
2022/03/09 10:08:25;;;;;;;;;;;;;;;8.93;80.38;102157.03;5270137;28;19912;-65
2022/03/09 10:11:02;;;;;;;;;;;;;;;9.13;80.68;102150.50;5252318;28;19922;-66
2022/03/09 10:13:35;;;;;;;;;;;;;;;9.34;80.23;102149.34;5251468;28;20024;-66
2022/03/09 10:16:30;;;;;;;;;;;;;;;9.42;80.47;102151.78;5251425;28;20352;-66
2022/03/09 10:19:01;;;;;;;;;;;;;;;9.59;80.09;102149.38;5251862;28;20414;-65
2022/03/09 10:21:37;;;;;;;;;;;;;;;9.72;79.12;102149.31;5251440;28;19959;-65
2022/03/09 10:24:09;;;;;;;;;;;;;;;9.79;79.00;102154.66;5250768;28;19916;-66
2022/03/09 10:26:39;;;;;;;;;;;;;;;9.86;78.82;102149.19;5249667;28;19912;-65
2022/03/09 10:29:09;;;;;;;;;;;;;;;9.96;76.86;102144.97;5269464;28;19916;-66
2022/03/09 10:31:44;;;;;;;;;;;;;;;10.19;78.85;102148.91;5251151;28;19919;-66
2022/03/09 10:34:16;;;;;;;;;;;;;;;10.33;77.23;102150.50;5269111;28;19923;-67
2022/03/09 10:37:15;;;;;;;;;;;;;;;10.51;77.47;102153.19;5251544;28;19916;-67
2022/03/09 10:39:46;;;;;;;;;;;;;;;10.65;75.29;102143.91;5234165;28;19982;-67
2022/03/09 10:42:24;;;;;;;;;;;;;;;10.83;77.76;102140.38;5251142;28;19912;-68
2022/03/09 10:44:55;;;;;;;;;;;;;;;11.00;74.59;102146.78;5250542;28;19947;-67
2022/03/09 10:47:35;;;;;;;;;;;;;;;11.15;74.99;102149.94;5250111;28;19983;-67
2022/03/09 10:50:11;;;;;;;;;;;;;;;11.28;73.51;102138.09;5250908;28;19922;-68
2022/03/09 10:53:01;;;;;;;;;;;;;;;11.43;72.98;102138.53;5250783;28;19912;-68
2022/03/09 10:55:33;;;;;;;;;;;;;;;11.53;72.34;102134.44;5249885;28;20395;-67
2022/03/09 10:58:10;;;;;;;;;;;;;;;11.63;71.28;102135.50;5251079;28;20376;-69
2022/03/09 11:01:06;;;;;;;;;;;;;;;11.82;73.90;102134.44;5250591;28;19912;-68
2022/03/09 11:03:42;;;;;;;;;;;;;;;11.99;70.24;102134.56;5243541;28;19916;-67
2022/03/09 11:06:14;;;;;;;;;;;;;;;12.08;69.82;102133.16;5250281;28;19916;-67
2022/03/09 11:08:44;;;;;;;;;;;;;;;12.13;69.67;102130.53;5250014;28;19942;-67
2022/03/09 11:11:15;;;;;;;;;;;;;;;12.27;70.44;102138.44;5250306;28;20007;-67
2022/03/09 11:13:45;;;;;;;;;;;;;;;12.26;69.11;102128.66;5249586;28;19990;-68
2022/03/09 11:16:17;;;;;;;;;;;;;;;12.35;69.15;102127.25;5250053;28;19912;-67
2022/03/09 11:18:47;;;;;;;;;;;;;;;12.40;70.00;102136.31;5250054;28;20295;-67
2022/03/09 11:21:18;;;;;;;;;;;;;;;11.91;70.80;102023.09;5250549;28;19912;-67
2022/03/09 11:23:50;;;;;;;;;;;;;;;12.65;69.08;102116.25;5249636;28;19916;-67
2022/03/09 11:26:24;;;;;;;;;;;;;;;12.74;68.43;102118.34;5250000;28;19924;-67
2022/03/09 11:29:02;;;;;;;;;;;;;;;12.75;67.71;102116.44;5249265;28;19959;-68
2022/03/09 11:31:41;;;;;;;;;;;;;;;12.84;70.18;102115.84;5250273;28;19916;-68
2022/03/09 11:34:29;;;;;;;;;;;;;;;12.84;67.06;102115.03;5249423;28;20323;-68
2022/03/09 11:37:01;;;;;;;;;;;;;;;12.93;67.21;102112.75;5250051;28;20393;-67
2022/03/09 11:39:31;;;;;;;;;;;;;;;13.01;69.74;102110.47;5250114;28;19954;-68
2022/03/09 11:42:33;;;;;;;;;;;;;;;13.02;69.36;102116.72;5249922;28;19954;-68
2022/03/09 11:45:22;;;;;;;;;;;;;;;13.20;69.20;102113.88;5236757;28;20429;-69
2022/03/09 11:48:14;;;;;;;;;;;;;;;13.28;65.09;102109.94;5249083;28;19923;-68
2022/03/09 11:50:45;;;;;;;;;;;;;;;13.36;65.05;102113.06;5249951;28;19985;-68
2022/03/09 11:53:34;;;;;;;;;;;;;;;13.27;63.35;102106.41;5249605;28;19981;-67
2022/03/09 11:56:24;;;;;;;;;;;;;;;13.40;65.73;102108.78;5249644;28;20455;-68
2022/03/09 11:59:13;;;;;;;;;;;;;;;13.54;66.71;102108.50;5247971;28;19912;-68
2022/03/09 12:02:10;;;;;;;;;;;;;;;13.67;64.88;102105.44;5249340;28;19919;-67
2022/03/09 12:04:40;;;;;;;;;;;;;;;13.72;64.76;102105.53;5245285;28;19917;-67
2022/03/09 12:07:34;;;;;;;;;;;;;;;13.74;64.09;102103.41;5249696;28;19912;-68
2022/03/09 12:10:09;;;;;;;;;;;;;;;13.67;64.09;102094.59;5249605;28;19915;-68
2022/03/09 12:12:59;;;;;;;;;;;;;;;13.81;65.25;102098.63;5249716;28;19912;-68
2022/03/09 12:15:29;;;;;;;;;;;;;;;13.98;63.27;102098.63;5249132;28;19966;-68
2022/03/09 12:18:00;;;;;;;;;;;;;;;14.08;61.41;102109.66;5249588;28;20341;-69
2022/03/09 12:20:31;;;;;;;;;;;;;;;14.10;62.54;102105.59;5249283;28;19916;-68
2022/03/09 12:23:02;;;;;;;;;;;;;;;14.22;62.71;102101.94;5249634;28;19912;-67
2022/03/09 12:25:39;;;;;;;;;;;;;;;14.28;63.93;102103.69;5249386;28;19942;-67
2022/03/09 12:28:21;;;;;;;;;;;;;;;14.26;62.13;102098.50;5249598;28;19919;-68
2022/03/09 12:30:53;;;;;;;;;;;;;;;14.11;59.62;102096.38;5249289;28;20299;-66
2022/03/09 12:33:26;;;;;;;;;;;;;;;14.01;61.31;102093.50;5249226;28;19919;-66
2022/03/09 12:36:07;;;;;;;;;;;;;;;14.14;60.69;102086.91;5249345;28;19922;-68
2022/03/09 12:38:42;;;;;;;;;;;;;;;14.29;60.89;102081.69;5249500;28;19912;-68
2022/03/09 12:41:24;;;;;;;;;;;;;;;14.40;60.46;102080.75;5261673;28;19920;-68
2022/03/09 12:44:15;;;;;;;;;;;;;;;14.58;57.99;102079.66;5269707;28;20368;-68
2022/03/09 12:46:47;;;;;;;;;;;;;;;14.71;61.74;102079.28;5269731;28;19912;-68
2022/03/09 12:49:22;;;;;;;;;;;;;;;14.72;58.82;102088.25;5270229;28;19941;-67
2022/03/09 12:51:54;;;;;;;;;;;;;;;14.63;57.06;102078.91;5268546;28;19912;-67
2022/03/09 12:54:33;;;;;;;;;;;;;;;14.56;58.24;102083.69;5255016;28;20291;-68
2022/03/09 12:57:10;;;;;;;;;;;;;;;14.66;57.56;102073.78;5248142;28;19963;-67
2022/03/09 13:00:01;;;;;;;;;;;;;;;14.80;57.61;102071.47;5250797;28;20280;-67
2022/03/09 13:02:43;;;;;;;;;;;;;;;14.88;57.12;102071.03;5271917;28;19912;-68
2022/03/09 13:05:21;;;;;;;;;;;;;;;14.79;56.85;102078.81;5255564;28;19955;-67
2022/03/09 13:07:56;;;;;;;;;;;;;;;14.83;58.14;102070.97;5255902;28;20006;-66